createdAt,value
2022-09-28T00:00:18.574Z,98905.06
2022-09-28T00:02:48.204Z,98903.95
2022-09-28T00:05:17.195Z,98894.02
2022-09-28T00:07:47.093Z,98900.36
2022-09-28T00:10:17.725Z,98905.58
2022-09-28T00:12:48.527Z,98921.01
2022-09-28T00:15:18.932Z,98925.13
2022-09-28T00:17:49.011Z,98915.75
2022-09-28T00:20:19.505Z,98913.26
2022-09-28T00:22:49.790Z,98908.04
2022-09-28T00:25:21.124Z,98919.34
2022-09-28T00:27:51.364Z,98921.30
2022-09-28T00:30:23.701Z,98924.05
2022-09-28T00:32:52.591Z,98927.59
2022-09-28T00:35:22.368Z,98925.10
2022-09-28T00:37:51.918Z,98918.77
2022-09-28T00:40:21.204Z,98914.38
2022-09-28T00:42:50.973Z,98911.63
2022-09-28T00:45:23.619Z,98911.66
2022-09-28T00:47:57.272Z,98897.61
2022-09-28T00:50:32.669Z,98905.32
2022-09-28T00:53:15.808Z,98908.36
2022-09-28T00:55:56.797Z,98904.78
2022-09-28T00:58:29.679Z,98907.82
2022-09-28T01:01:00.402Z,98909.73
2022-09-28T01:03:30.413Z,98907.82
2022-09-28T01:06:02.055Z,98911.41
2022-09-28T01:08:32.719Z,98895.69
2022-09-28T01:11:04.004Z,98899.23
2022-09-28T01:13:33.554Z,98899.49
2022-09-28T01:16:50.261Z,98904.45
2022-09-28T01:20:15.169Z,98904.71
2022-09-28T01:23:13.013Z,98908.01
2022-09-28T01:25:58.020Z,98903.84
2022-09-28T01:28:30.073Z,98905.73
2022-09-28T01:31:17.461Z,98908.48
2022-09-28T01:34:06.529Z,98904.61
2022-09-28T01:36:41.533Z,98908.70
2022-09-28T01:39:18.410Z,98904.22
2022-09-28T01:41:48.872Z,98909.14
2022-09-28T01:44:18.524Z,98900.64
2022-09-28T01:46:49.251Z,98895.42
2022-09-28T01:49:23.114Z,98895.16
2022-09-28T01:52:12.700Z,98886.88
2022-09-28T01:54:47.585Z,98881.63
2022-09-28T01:57:32.276Z,98886.33
2022-09-28T02:00:11.736Z,98888.06
2022-09-28T02:03:02.203Z,98892.77
2022-09-28T02:05:39.265Z,98898.02
2022-09-28T02:08:39.727Z,98898.56
2022-09-28T02:11:18.452Z,98902.98
2022-09-28T02:14:05.570Z,98898.84
2022-09-28T02:16:44.744Z,98899.94
2022-09-28T02:19:22.141Z,98897.15
2022-09-28T02:22:25.206Z,98899.84
2022-09-28T02:25:05.358Z,98897.15
2022-09-28T02:27:49.171Z,98899.94
2022-09-28T02:30:19.280Z,98906.27
2022-09-28T02:32:50.894Z,98896.06
2022-09-28T02:35:24.902Z,98894.11
2022-09-28T02:37:55.042Z,98895.77
2022-09-28T02:40:28.760Z,98892.48
2022-09-28T02:43:18.809Z,98890.84
2022-09-28T02:46:22.771Z,98891.97
2022-09-28T02:49:20.853Z,98900.48
2022-09-28T02:51:48.066Z,98904.03
2022-09-28T02:54:41.091Z,98900.67
2022-09-28T02:58:07.528Z,98910.63
2022-09-28T03:00:43.810Z,98908.34
2022-09-28T03:03:23.694Z,98917.36
2022-09-28T03:06:07.184Z,98912.41
2022-09-28T03:08:47.248Z,98903.86
2022-09-28T03:11:30.228Z,98901.94
2022-09-28T03:14:00.656Z,98901.94
2022-09-28T03:16:32.605Z,98906.06
2022-09-28T03:19:02.779Z,98901.69
2022-09-28T03:21:32.308Z,98900.34
2022-09-28T03:24:04.276Z,98897.81
2022-09-28T03:26:33.749Z,98901.66
2022-09-28T03:29:04.137Z,98907.98
2022-09-28T03:31:34.947Z,98905.81
2022-09-28T03:34:06.640Z,98908.60
2022-09-28T03:36:36.819Z,98905.59
2022-09-28T03:39:06.395Z,98903.93
2022-09-28T03:41:36.674Z,98909.39
2022-09-28T03:44:05.592Z,98906.10
2022-09-28T03:46:35.729Z,98898.68
2022-09-28T03:49:06.822Z,98895.89
2022-09-28T03:51:36.496Z,98896.69
2022-09-28T03:54:07.163Z,98899.44
2022-09-28T03:56:38.063Z,98893.36
2022-09-28T03:59:07.998Z,98893.36
2022-09-28T04:01:39.292Z,98897.78
2022-09-28T04:04:12.653Z,98898.64
2022-09-28T04:06:43.028Z,98900.85
2022-09-28T04:09:12.326Z,98911.06
2022-09-28T04:11:59.755Z,98905.56
2022-09-28T04:14:14.488Z,98910.52
2022-09-28T04:16:44.550Z,98903.64
2022-09-28T04:19:16.712Z,98900.59
2022-09-28T04:21:51.931Z,98909.43
2022-09-28T04:24:21.606Z,98908.34
2022-09-28T04:26:50.974Z,98911.13
2022-09-28T04:29:22.941Z,98904.86
2022-09-28T04:31:55.344Z,98909.53
2022-09-28T04:34:31.885Z,98905.12
2022-09-28T04:36:59.822Z,98905.15
2022-09-28T04:39:30.212Z,98907.36
2022-09-28T04:42:00.030Z,98908.20
2022-09-28T04:44:30.310Z,98902.41
2022-09-28T04:47:05.347Z,98902.15
2022-09-28T04:49:36.194Z,98899.42
2022-09-28T04:52:07.961Z,98901.63
2022-09-28T04:54:38.386Z,98906.62
2022-09-28T04:57:09.830Z,98907.43
2022-09-28T04:59:40.902Z,98911.30
2022-09-28T05:02:13.886Z,98912.97
2022-09-28T05:05:01.666Z,98905.83
2022-09-28T05:07:42.333Z,98901.16
2022-09-28T05:10:13.747Z,98902.28
2022-09-28T05:12:44.212Z,98903.44
2022-09-28T05:15:15.762Z,98901.83
2022-09-28T05:17:45.620Z,98898.83
2022-09-28T05:20:29.258Z,98899.41
2022-09-28T05:22:59.284Z,98905.48
2022-09-28T05:25:29.428Z,98906.09
2022-09-28T05:28:01.501Z,98901.45
2022-09-28T05:30:49.820Z,98894.88
2022-09-28T05:33:44.873Z,98895.75
2022-09-28T05:36:16.127Z,98894.94
2022-09-28T05:38:47.902Z,98894.97
2022-09-28T05:41:18.136Z,98883.98
2022-09-28T05:43:48.647Z,98890.61
2022-09-28T05:46:18.361Z,98890.61
2022-09-28T05:48:47.694Z,98887.05
2022-09-28T05:51:17.117Z,98899.73
2022-09-28T05:53:46.566Z,98906.91
2022-09-28T05:56:18.342Z,98903.58
2022-09-28T05:58:47.902Z,98910.47
2022-09-28T06:01:20.323Z,98912.42
2022-09-28T06:03:51.525Z,98908.83
2022-09-28T06:06:22.927Z,98915.20
2022-09-28T06:08:53.124Z,98904.76
2022-09-28T06:11:26.030Z,98911.39
2022-09-28T06:13:57.774Z,98909.20
2022-09-28T06:16:29.897Z,98906.45
2022-09-28T06:18:59.486Z,98903.75
2022-09-28T06:21:39.574Z,98913.42
2022-09-28T06:24:10.240Z,98914.27
2022-09-28T06:26:41.117Z,98909.58
2022-09-28T06:29:10.070Z,98906.28
2022-09-28T06:31:41.928Z,98910.16
2022-09-28T06:34:12.355Z,98904.36
2022-09-28T06:36:42.248Z,98904.91
2022-09-28T06:39:12.715Z,98901.60
2022-09-28T06:41:46.303Z,98901.08
2022-09-28T06:44:18.997Z,98896.95
2022-09-28T06:46:56.182Z,98894.77
2022-09-28T06:49:27.464Z,98896.13
2022-09-28T06:52:18.863Z,98886.99
2022-09-28T06:55:10.496Z,98889.20
2022-09-28T06:57:47.270Z,98886.73
2022-09-28T07:00:18.723Z,98885.64
2022-09-28T07:02:50.302Z,98878.19
2022-09-28T07:05:23.505Z,98877.64
2022-09-28T07:08:10.947Z,98879.82
2022-09-28T07:10:44.965Z,98884.50
2022-09-28T07:13:48.989Z,98893.05
2022-09-28T07:16:03.135Z,98883.38
2022-09-28T07:18:34.392Z,98886.69
2022-09-28T07:21:06.198Z,98882.84
2022-09-28T07:23:46.131Z,98887.16
2022-09-28T07:26:25.574Z,98877.23
2022-09-28T07:29:04.691Z,98877.23
2022-09-28T07:31:44.201Z,98872.81
2022-09-28T07:34:23.314Z,98877.58
2022-09-28T07:37:02.664Z,98870.48
2022-09-28T07:39:34.521Z,98863.97
2022-09-28T07:42:05.433Z,98870.91
2022-09-28T07:44:36.443Z,98869.89
2022-09-28T07:47:06.156Z,98864.73
2022-09-28T07:49:44.015Z,98865.37
2022-09-28T07:52:23.325Z,98872.61
2022-09-28T07:54:55.576Z,98868.52
2022-09-28T07:57:26.884Z,98869.37
2022-09-28T07:59:58.937Z,98870.81
2022-09-28T08:02:32.139Z,98873.06
2022-09-28T08:05:01.588Z,98877.25
2022-09-28T08:07:32.139Z,98874.51
2022-09-28T08:10:05.826Z,98868.98
2022-09-28T08:12:41.249Z,98869.25
2022-09-28T08:15:15.530Z,98865.41
2022-09-28T08:17:58.015Z,98861.56
2022-09-28T08:20:50.751Z,98864.36
2022-09-28T08:23:18.167Z,98862.73
2022-09-28T08:25:49.232Z,98863.84
2022-09-28T08:28:18.704Z,98863.88
2022-09-28T08:30:50.449Z,98862.53
2022-09-28T08:33:28.750Z,98870.01
2022-09-28T08:36:15.971Z,98867.56
2022-09-28T08:38:46.742Z,98865.73
2022-09-28T08:41:52.962Z,98873.28
2022-09-28T08:44:47.676Z,98857.03
2022-09-28T08:47:46.836Z,98855.44
2022-09-28T08:50:26.753Z,98851.61
2022-09-28T08:53:23.734Z,98850.54
2022-09-28T08:56:03.427Z,98849.23
2022-09-28T08:58:39.725Z,98844.27
2022-09-28T09:01:11.604Z,98845.66
2022-09-28T09:03:42.213Z,98847.88
2022-09-28T09:06:50.242Z,98852.03
2022-09-28T09:09:53.956Z,98852.07
2022-09-28T09:12:39.417Z,98852.07
2022-09-28T09:15:41.314Z,98859.27
2022-09-28T09:18:43.987Z,98860.92
2022-09-28T09:21:42.890Z,98860.64
2022-09-28T09:24:27.265Z,98866.69
2022-09-28T09:27:25.885Z,98853.14
2022-09-28T09:30:14.498Z,98847.60
2022-09-28T09:33:18.916Z,98852.86
2022-09-28T09:36:38.390Z,98840.69
2022-09-28T09:40:01.711Z,98835.16
2022-09-28T09:43:14.735Z,98835.70
2022-09-28T09:46:14.740Z,98841.24
2022-09-28T09:49:20.260Z,98845.39
2022-09-28T09:52:06.560Z,98854.55
2022-09-28T09:55:01.759Z,98853.73
2022-09-28T09:57:46.468Z,98847.64
2022-09-28T10:00:21.643Z,98860.92
2022-09-28T10:02:53.990Z,98864.25
2022-09-28T10:05:27.466Z,98865.91
2022-09-28T10:08:06.559Z,98860.38
2022-09-28T10:10:39.414Z,98869.22
2022-09-28T10:13:11.522Z,98867.84
2022-09-28T10:15:40.999Z,98873.37
2022-09-28T10:18:19.979Z,98861.75
2022-09-28T10:21:16.679Z,98858.72
2022-09-28T10:24:04.857Z,98857.05
2022-09-28T10:26:37.616Z,98854.29
2022-09-28T10:29:14.510Z,98863.70
2022-09-28T10:31:52.385Z,98858.16
2022-09-28T10:34:30.284Z,98858.16
2022-09-28T10:37:08.833Z,98860.38
2022-09-28T10:39:53.651Z,98851.80
2022-09-28T10:42:26.580Z,98859.55
2022-09-28T10:45:06.737Z,98858.44
2022-09-28T10:47:40.398Z,98865.08
2022-09-28T10:50:22.945Z,98866.19
2022-09-28T10:52:54.042Z,98866.46
2022-09-28T10:55:32.758Z,98851.25
2022-09-28T10:58:23.831Z,98849.31
2022-09-28T11:00:55.747Z,98850.72
2022-09-28T11:03:27.450Z,98856.53
2022-09-28T11:06:02.443Z,98858.74
2022-09-28T11:08:39.962Z,98854.59
2022-09-28T11:11:15.328Z,98850.44
2022-09-28T11:13:55.059Z,98852.66
2022-09-28T11:16:31.606Z,98856.53
2022-09-28T11:19:22.955Z,98857.08
2022-09-28T11:21:53.639Z,98852.92
2022-09-28T11:24:26.973Z,98848.22
2022-09-28T11:26:59.860Z,98854.03
2022-09-28T11:29:43.708Z,98846.00
2022-09-28T11:32:44.580Z,98854.03
2022-09-28T11:35:32.690Z,98850.70
2022-09-28T11:38:13.333Z,98846.83
2022-09-28T11:41:10.282Z,98849.31
2022-09-28T11:44:18.952Z,98844.05
2022-09-28T11:47:33.133Z,98845.71
2022-09-28T11:50:31.385Z,98853.75
2022-09-28T11:53:33.541Z,98844.89
2022-09-28T11:56:31.049Z,98850.14
2022-09-28T11:59:07.273Z,98855.13
2022-09-28T12:01:51.274Z,98853.47
2022-09-28T12:04:40.538Z,98861.22
2022-09-28T12:07:36.668Z,98859.84
2022-09-28T12:10:24.104Z,98856.23
2022-09-28T12:13:09.919Z,98865.09
2022-09-28T12:16:17.148Z,98863.44
2022-09-28T12:18:49.179Z,98859.29
2022-09-28T12:21:38.369Z,98858.19
2022-09-28T12:24:26.907Z,98847.66
2022-09-28T12:27:03.939Z,98844.90
2022-09-28T12:30:04.675Z,98849.61
2022-09-28T12:32:45.283Z,98852.38
2022-09-28T12:35:17.990Z,98857.64
2022-09-28T12:38:33.547Z,98857.36
2022-09-28T12:41:27.620Z,98852.66
2022-09-28T12:44:17.203Z,98858.75
2022-09-28T12:47:40.597Z,98867.57
2022-09-28T12:50:39.544Z,98869.23
2022-09-28T12:53:52.752Z,98860.92
2022-09-28T12:56:39.114Z,98863.97
2022-09-28T12:59:19.105Z,98858.71
2022-09-28T13:02:14.490Z,98868.39
2022-09-28T13:05:18.791Z,98863.13
2022-09-28T13:08:26.963Z,98854.56
2022-09-28T13:11:08.148Z,98856.49
2022-09-28T13:14:04.990Z,98857.84
2022-09-28T13:16:43.188Z,98853.96
2022-09-28T13:19:32.569Z,98855.34
2022-09-28T13:22:45.103Z,98845.66
2022-09-28T13:25:19.494Z,98843.45
2022-09-28T13:28:00.603Z,98848.70
2022-09-28T13:30:31.184Z,98848.42
2022-09-28T13:33:03.051Z,98852.28
2022-09-28T13:35:33.037Z,98849.52
2022-09-28T13:38:22.903Z,98853.67
2022-09-28T13:41:10.733Z,98853.12
2022-09-28T13:43:48.695Z,98859.47
2022-09-28T13:47:09.602Z,98860.02
2022-09-28T13:50:00.149Z,98859.19
2022-09-28T13:53:06.680Z,98861.95
2022-09-28T13:56:14.714Z,98857.54
2022-09-28T13:59:05.799Z,98870.27
2022-09-28T14:01:44.245Z,98862.80
2022-09-28T14:04:25.888Z,98864.19
2022-09-28T14:06:57.326Z,98868.06
2022-09-28T14:09:48.191Z,98862.81
2022-09-28T14:12:32.635Z,98863.64
2022-09-28T14:15:02.240Z,98870.00
2022-09-28T14:17:47.655Z,98872.77
2022-09-28T14:20:17.734Z,98871.11
2022-09-28T14:23:09.164Z,98874.14
2022-09-28T14:26:13.695Z,98871.09
2022-09-28T14:28:49.046Z,98871.92
2022-09-28T14:31:25.690Z,98873.30
2022-09-28T14:33:57.396Z,98873.02
2022-09-28T14:36:49.645Z,98878.55
2022-09-28T14:39:40.895Z,98879.66
2022-09-28T14:42:15.682Z,98879.37
2022-09-28T14:45:08.001Z,98890.70
2022-09-28T14:47:49.151Z,98900.09
2022-09-28T14:50:29.087Z,98905.08
2022-09-28T14:53:20.086Z,98893.73
2022-09-28T14:55:58.768Z,98898.42
2022-09-28T14:58:29.476Z,98906.98
2022-09-28T15:01:02.929Z,98906.66
2022-09-28T15:03:34.052Z,98907.48
2022-09-28T15:06:03.696Z,98916.04
2022-09-28T15:08:38.870Z,98914.09
2022-09-28T15:11:13.110Z,98914.92
2022-09-28T15:13:43.360Z,98920.17
2022-09-28T15:16:14.339Z,98920.16
2022-09-28T15:18:58.842Z,98918.49
2022-09-28T15:21:41.650Z,98922.91
2022-09-28T15:24:34.524Z,98919.58
2022-09-28T15:27:18.089Z,98928.42
2022-09-28T15:30:04.680Z,98931.99
2022-09-28T15:32:34.317Z,98933.91
2022-09-28T15:35:23.832Z,98940.27
2022-09-28T15:37:54.019Z,98945.24
2022-09-28T15:40:33.724Z,98941.92
2022-09-28T15:43:09.065Z,98951.31
2022-09-28T15:45:40.314Z,98949.08
2022-09-28T15:48:33.304Z,98952.95
2022-09-28T15:51:09.541Z,98948.27
2022-09-28T15:54:05.221Z,98957.65
2022-09-28T15:56:37.167Z,98954.89
2022-09-28T15:59:23.278Z,98972.02
2022-09-28T16:02:10.542Z,98970.90
2022-09-28T16:04:55.445Z,98976.69
2022-09-28T16:07:34.387Z,98981.09
2022-09-28T16:10:15.344Z,98979.16
2022-09-28T16:12:48.864Z,98985.77
2022-09-28T16:15:25.737Z,98988.80
2022-09-28T16:18:02.289Z,98994.03
2022-09-28T16:20:39.233Z,98986.00
2022-09-28T16:23:27.486Z,98991.52
2022-09-28T16:26:11.504Z,98985.72
2022-09-28T16:28:48.161Z,98989.86
2022-09-28T16:31:27.744Z,98994.28
2022-09-28T16:34:02.011Z,98994.00
2022-09-28T16:36:43.361Z,98994.28
2022-09-28T16:39:14.242Z,98994.02
2022-09-28T16:41:56.171Z,98995.66
2022-09-28T16:44:27.016Z,98991.52
2022-09-28T16:47:00.417Z,98992.91
2022-09-28T16:49:31.313Z,98992.62
2022-09-28T16:52:02.144Z,98998.70
2022-09-28T16:54:49.767Z,98997.88
2022-09-28T16:57:19.115Z,99008.38
2022-09-28T16:59:48.512Z,99002.02
2022-09-28T17:02:45.303Z,99007.53
2022-09-28T17:04:53.636Z,99008.34
2022-09-28T17:07:23.987Z,99008.06
2022-09-28T17:09:52.836Z,99008.61
2022-09-28T17:12:27.080Z,99008.06
2022-09-28T17:14:56.375Z,99004.46
2022-09-28T17:17:29.439Z,99015.51
2022-09-28T17:19:59.105Z,99019.66
2022-09-28T17:22:28.392Z,99016.05
2022-09-28T17:24:58.651Z,99038.97
2022-09-28T17:27:28.307Z,99048.33
2022-09-28T17:29:57.852Z,99057.11
2022-09-28T17:32:26.962Z,99051.47
2022-09-28T17:35:19.964Z,99054.18
2022-09-28T17:37:26.635Z,99065.75
2022-09-28T17:39:57.183Z,99066.22
2022-09-28T17:42:26.787Z,99076.56
2022-09-28T17:44:56.239Z,99093.25
2022-09-28T17:47:25.425Z,99096.41
2022-09-28T17:49:54.966Z,99103.95
2022-09-28T17:52:24.040Z,99100.78
2022-09-28T17:54:52.951Z,99100.94
2022-09-28T17:57:22.135Z,99101.45
2022-09-28T17:59:51.829Z,99101.13
2022-09-28T18:02:23.619Z,99116.55
2022-09-28T18:04:54.172Z,99116.22
2022-09-28T18:07:24.521Z,99116.19
2022-09-28T18:09:56.226Z,99120.28
2022-09-28T18:12:25.563Z,99119.41
2022-09-28T18:14:55.369Z,99124.86
2022-09-28T18:17:24.800Z,99124.83
2022-09-28T18:19:54.301Z,99127.80
2022-09-28T18:22:24.754Z,99126.31
2022-09-28T18:24:54.172Z,99128.74
2022-09-28T18:27:24.107Z,99133.67
2022-09-28T18:29:54.624Z,99135.30
2022-09-28T18:32:23.873Z,99145.19
2022-09-28T18:34:53.710Z,99147.95
2022-09-28T18:37:23.562Z,99153.45
2022-09-28T18:39:52.367Z,99159.47
2022-09-28T18:42:21.638Z,99157.26
2022-09-28T18:44:50.696Z,99157.43
2022-09-28T18:47:20.699Z,99164.52
2022-09-28T18:49:50.899Z,99163.36
2022-09-28T18:52:19.837Z,99169.08
2022-09-28T18:54:50.237Z,99166.53
2022-09-28T18:57:19.085Z,99172.53
2022-09-28T18:59:48.102Z,99172.20
2022-09-28T19:02:17.798Z,99181.16
2022-09-28T19:04:47.089Z,99181.32
2022-09-28T19:07:16.744Z,99186.44
2022-09-28T19:09:46.420Z,99190.98
2022-09-28T19:12:16.478Z,99190.89
2022-09-28T19:14:46.764Z,99188.88
2022-09-28T19:17:17.949Z,99190.50
2022-09-28T19:19:47.277Z,99192.37
2022-09-28T19:22:17.622Z,99198.91
2022-09-28T19:24:47.180Z,99202.88
2022-09-28T19:27:18.513Z,99202.00
2022-09-28T19:29:47.739Z,99215.11
2022-09-28T19:32:17.813Z,99225.52
2022-09-28T19:34:48.511Z,99222.91
2022-09-28T19:37:18.217Z,99233.48
2022-09-28T19:39:48.309Z,99234.21
2022-09-28T19:42:17.114Z,99239.41
2022-09-28T19:44:47.485Z,99242.35
2022-09-28T19:47:19.305Z,99244.75
2022-09-28T19:49:49.452Z,99253.54
2022-09-28T19:52:18.995Z,99247.66
2022-09-28T19:54:53.795Z,99244.61
2022-09-28T19:57:25.752Z,99253.82
2022-09-28T19:59:59.228Z,99262.79
2022-09-28T20:02:25.918Z,99257.95
2022-09-28T20:04:55.195Z,99268.00
2022-09-28T20:07:23.921Z,99263.81
2022-09-28T20:09:54.117Z,99272.23
2022-09-28T20:12:23.908Z,99275.46
2022-09-28T20:14:54.087Z,99272.12
2022-09-28T20:17:23.067Z,99272.59
2022-09-28T20:19:52.177Z,99281.91
2022-09-28T20:22:21.017Z,99280.23
2022-09-28T20:24:51.283Z,99291.53
2022-09-28T20:27:26.089Z,99289.32
2022-09-28T20:29:51.937Z,99287.59
2022-09-28T20:32:21.625Z,99283.64
2022-09-28T20:34:51.801Z,99282.27
2022-09-28T20:37:23.871Z,99285.19
2022-09-28T20:39:55.196Z,99288.11
2022-09-28T20:42:25.150Z,99284.77
2022-09-28T20:44:54.826Z,99291.33
2022-09-28T20:47:24.677Z,99300.64
2022-09-28T20:49:55.786Z,99306.87
2022-09-28T20:52:25.603Z,99313.44
2022-09-28T20:54:55.545Z,99314.69
2022-09-28T20:57:25.863Z,99321.05
2022-09-28T20:59:55.061Z,99318.71
2022-09-28T21:02:24.864Z,99317.67
2022-09-28T21:04:54.402Z,99321.05
2022-09-28T21:07:24.221Z,99312.30
2022-09-28T21:09:53.397Z,99318.95
2022-09-28T21:12:22.426Z,99324.31
2022-09-28T21:14:53.615Z,99321.16
2022-09-28T21:17:24.075Z,99326.77
2022-09-28T21:19:54.311Z,99321.52
2022-09-28T21:22:23.969Z,99325.02
2022-09-28T21:24:52.755Z,99322.14
2022-09-28T21:27:21.651Z,99317.88
2022-09-28T21:29:51.500Z,99324.13
2022-09-28T21:32:20.660Z,99324.59
2022-09-28T21:34:50.240Z,99329.63
2022-09-28T21:37:20.210Z,99334.42
2022-09-28T21:39:49.566Z,99332.06
2022-09-28T21:42:19.445Z,99335.80
2022-09-28T21:44:48.358Z,99333.59
2022-09-28T21:47:18.175Z,99334.05
2022-09-28T21:49:46.893Z,99337.25
2022-09-28T21:52:17.667Z,99348.52
2022-09-28T21:54:46.519Z,99348.51
2022-09-28T21:57:17.552Z,99350.98
2022-09-28T21:59:48.991Z,99355.01
2022-09-28T22:02:21.512Z,99356.83
2022-09-28T22:04:51.424Z,99357.81
2022-09-28T22:07:21.835Z,99367.33
2022-09-28T22:09:53.697Z,99365.95
2022-09-28T22:12:23.878Z,99364.59
2022-09-28T22:14:54.499Z,99368.92
2022-09-28T22:17:24.347Z,99374.77
2022-09-28T22:19:53.611Z,99372.03
2022-09-28T22:22:26.158Z,99377.51
2022-09-28T22:24:54.706Z,99375.22
2022-09-28T22:27:24.400Z,99377.65
2022-09-28T22:29:54.153Z,99387.46
2022-09-28T22:32:27.227Z,99393.47
2022-09-28T22:34:58.163Z,99388.44
2022-09-28T22:37:27.799Z,99392.77
2022-09-28T22:39:57.399Z,99385.31
2022-09-28T22:42:27.094Z,99389.95
2022-09-28T22:44:56.271Z,99396.80
2022-09-28T22:47:26.407Z,99398.17
2022-09-28T22:49:56.553Z,99405.46
2022-09-28T22:52:26.744Z,99401.58
2022-09-28T22:54:55.874Z,99389.91
2022-09-28T22:57:25.819Z,99388.16
2022-09-28T22:59:55.440Z,99388.91
2022-09-28T23:02:25.142Z,99396.81
2022-09-28T23:04:54.172Z,99398.72
2022-09-28T23:07:23.263Z,99402.42
2022-09-28T23:09:53.737Z,99398.98
2022-09-28T23:12:23.382Z,99401.95
2022-09-28T23:14:53.006Z,99392.51
2022-09-28T23:17:22.696Z,99397.05
2022-09-28T23:19:53.164Z,99391.80
2022-09-28T23:22:22.553Z,99392.77
2022-09-28T23:24:52.192Z,99394.58
2022-09-28T23:27:22.473Z,99396.78
2022-09-28T23:29:53.659Z,99392.99
2022-09-28T23:32:23.377Z,99396.03
2022-09-28T23:34:53.630Z,99393.83
2022-09-28T23:37:23.036Z,99406.15
2022-09-28T23:39:53.547Z,99405.63
2022-09-28T23:42:23.590Z,99410.42
2022-09-28T23:44:54.401Z,99415.50
2022-09-28T23:47:23.590Z,99421.72
2022-09-28T23:49:53.146Z,99425.42
2022-09-28T23:52:22.967Z,99417.95
2022-09-28T23:54:52.762Z,99418.70
2022-09-28T23:57:22.409Z,99414.28
2022-09-28T23:59:52.257Z,99421.84
